Startpagina
METAR-TAF:

METAR-TAF

Vliegvelden :

Brest, Wit-Rusland

breedte: 52-06-30N, lengte: 023-53-48E, hoogte: 143 m

Actueel weer

Dit bericht is 55 minuten geleden gemaakt, om 13:30 UTC
Wind 2 kt uit het zuidwesten
Temperatuur 7°C
Vochtigheid 87%
Druk 992 hPa
Zicht: 8000 m
Geheel bewolkt op 1100 ft, Cumulonimbus.

METAR: UMBB 261330Z 23001MPS 8000 OVC011CB 07/05 Q0992 R29/290050 NOSIG

Tijdstip: 17:25 (14:25 UTC)

Verwachting

Dit bericht is 3 uur en het 24 minuten geleden gemaakt, om 11:01 UTC
Verwachting geldig van 26 om 12 UTC tot 26 om 21 UTC
Wind 10 kt uit het zuidwesten
Zicht: 6000 m
Gebroken wolken op 1000 ft
Tijdelijke
van 26 om 12 UTC tot 26 om 20 UTC
Zicht: 2100 m
Gebroken wolken op 700 ft
Gebroken wolken op 1500 ft, Cumulonimbus.
lichte regenbuien, nevel

TAF: UMBB 261101Z 2612/2621 23005MPS 6000 BKN010 TEMPO 2612/2620 2100 -SHRA BR BKN007 BKN015CB

Waarnemingen en weersverwachtingen van meer dan 4000 vliegvelden (METAR en TAF).

De beschikbare stations zijn de gele en rode punten op de kaart.

Ga met uw muis naar het station om de naam te zien.

Klik dan om waarnemingen en weersverwachtingen te zien.

kaart wijzigen: klik op de groene knoppen met een zwart kruis om in te zoomen, op de groene knop met een streepje om uit te zoomen of op de groene pijlen voor aangrenzende kaarten.


METAR-TAF: